createdAt,value
2019-02-20T00:00:18.945Z,73.58
2019-02-20T00:02:46.865Z,73.72
2019-02-20T00:05:14.736Z,73.82
2019-02-20T00:07:42.660Z,73.89
2019-02-20T00:10:11.240Z,73.98
2019-02-20T00:12:39.378Z,74.04
2019-02-20T00:15:07.247Z,74.10
2019-02-20T00:17:35.008Z,74.16
2019-02-20T00:20:03.315Z,73.97
2019-02-20T00:22:39.794Z,74.09
2019-02-20T00:25:00.974Z,74.09
2019-02-20T00:27:28.841Z,73.89
2019-02-20T00:29:56.675Z,74.08
2019-02-20T00:32:24.430Z,74.37
2019-02-20T00:34:52.261Z,74.27
2019-02-20T00:37:20.043Z,74.02
2019-02-20T00:39:47.903Z,74.58
2019-02-20T00:42:15.964Z,74.77
2019-02-20T00:45:03.229Z,74.67
2019-02-20T00:47:49.147Z,74.22
2019-02-20T00:50:17.865Z,74.38
2019-02-20T00:53:03.359Z,73.87
2019-02-20T00:55:31.360Z,73.59
2019-02-20T00:57:59.101Z,73.93
2019-02-20T01:00:28.375Z,73.67
2019-02-20T01:02:56.282Z,73.29
2019-02-20T01:05:24.214Z,73.36
2019-02-20T01:07:51.952Z,73.31
2019-02-20T01:10:19.776Z,73.43
2019-02-20T01:12:47.553Z,73.21
2019-02-20T01:15:15.591Z,73.24
2019-02-20T01:17:43.441Z,73.28
2019-02-20T01:20:11.433Z,73.35
2019-02-20T01:22:39.805Z,73.03
2019-02-20T01:25:07.822Z,72.74
2019-02-20T01:27:35.670Z,72.67
2019-02-20T01:30:03.940Z,73.11
2019-02-20T01:32:31.704Z,73.10
2019-02-20T01:34:59.690Z,73.34
2019-02-20T01:37:27.551Z,73.07
2019-02-20T01:39:55.496Z,73.33
2019-02-20T01:42:23.247Z,72.75
2019-02-20T01:44:51.910Z,72.80
2019-02-20T01:47:19.761Z,73.30
2019-02-20T01:49:47.584Z,73.02
2019-02-20T01:52:15.382Z,73.41
2019-02-20T01:54:43.364Z,73.24
2019-02-20T01:57:11.344Z,73.42
2019-02-20T01:59:39.115Z,73.18
2019-02-20T02:02:07.023Z,73.54
2019-02-20T02:04:34.783Z,72.99
2019-02-20T02:07:02.816Z,73.20
2019-02-20T02:09:30.669Z,73.62
2019-02-20T02:11:58.470Z,73.07
2019-02-20T02:14:26.212Z,73.78
2019-02-20T02:16:54.198Z,73.68
2019-02-20T02:19:22.056Z,73.56
2019-02-20T02:21:49.855Z,73.37
2019-02-20T02:24:17.796Z,72.94
2019-02-20T02:26:45.743Z,73.21
2019-02-20T02:29:13.560Z,73.21
2019-02-20T02:31:41.794Z,73.50
2019-02-20T02:34:19.303Z,73.09
2019-02-20T02:36:48.002Z,73.07
2019-02-20T02:39:15.748Z,72.68
2019-02-20T02:41:44.828Z,72.77
2019-02-20T02:44:12.824Z,72.83
2019-02-20T02:46:40.725Z,72.78
2019-02-20T02:49:08.533Z,72.91
2019-02-20T02:51:36.417Z,73.04
2019-02-20T02:54:04.305Z,73.08
2019-02-20T02:56:32.201Z,73.03
2019-02-20T02:59:00.721Z,72.90
2019-02-20T03:01:29.284Z,72.93
2019-02-20T03:03:57.111Z,72.86
2019-02-20T03:06:24.959Z,73.01
2019-02-20T03:08:52.696Z,73.48
2019-02-20T03:11:20.443Z,73.09
2019-02-20T03:13:48.237Z,73.03
2019-02-20T03:16:16.080Z,73.03
2019-02-20T03:18:43.992Z,72.92
2019-02-20T03:21:11.758Z,72.98
2019-02-20T03:23:40.412Z,73.32
2019-02-20T03:26:08.857Z,73.33
2019-02-20T03:28:36.687Z,73.08
2019-02-20T03:31:04.460Z,72.97
2019-02-20T03:33:32.297Z,74.01
2019-02-20T03:36:02.884Z,73.62
2019-02-20T03:38:30.818Z,73.81
2019-02-20T03:40:58.849Z,74.17
2019-02-20T03:43:26.787Z,73.42
2019-02-20T03:45:54.659Z,73.91
2019-02-20T03:48:22.487Z,73.67
2019-02-20T03:50:50.431Z,73.81
2019-02-20T03:53:18.363Z,73.77
2019-02-20T03:55:46.809Z,73.97
2019-02-20T03:58:14.928Z,73.74
2019-02-20T04:00:42.773Z,73.82
2019-02-20T04:03:10.705Z,74.02
2019-02-20T04:05:38.672Z,73.89
2019-02-20T04:08:06.697Z,73.66
2019-02-20T04:10:34.465Z,73.71
2019-02-20T04:13:02.296Z,73.72
2019-02-20T04:15:30.232Z,74.04
2019-02-20T04:17:58.346Z,73.71
2019-02-20T04:20:26.158Z,74.17
2019-02-20T04:22:54.158Z,74.48
2019-02-20T04:25:21.932Z,74.59
2019-02-20T04:27:49.700Z,74.23
2019-02-20T04:30:18.213Z,74.57
2019-02-20T04:32:46.032Z,74.46
2019-02-20T04:35:13.825Z,74.76
2019-02-20T04:37:41.746Z,74.02
2019-02-20T04:40:09.844Z,74.42
2019-02-20T04:42:37.612Z,74.26
2019-02-20T04:45:06.115Z,74.29
2019-02-20T04:47:33.857Z,74.27
2019-02-20T04:50:01.852Z,74.29
2019-02-20T04:52:29.723Z,74.58
2019-02-20T04:54:58.129Z,74.15
2019-02-20T04:57:25.886Z,73.82
2019-02-20T04:59:53.692Z,73.67
2019-02-20T05:02:21.542Z,73.62
2019-02-20T05:04:49.572Z,73.48
2019-02-20T05:07:17.325Z,73.32
2019-02-20T05:09:48.064Z,73.56
2019-02-20T05:12:15.896Z,73.91
2019-02-20T05:14:44.527Z,73.50
2019-02-20T05:17:12.485Z,73.79
2019-02-20T05:19:40.385Z,73.47
2019-02-20T05:22:08.131Z,73.37
2019-02-20T05:24:35.951Z,73.84
2019-02-20T05:27:03.922Z,73.96
2019-02-20T05:29:31.836Z,73.65
2019-02-20T05:31:59.575Z,74.32
2019-02-20T05:34:27.490Z,73.82
2019-02-20T05:36:55.347Z,73.66
2019-02-20T05:39:23.171Z,73.67
2019-02-20T05:41:50.950Z,73.85
2019-02-20T05:44:18.752Z,73.77
2019-02-20T05:46:46.647Z,73.81
2019-02-20T05:49:14.405Z,73.48
2019-02-20T05:51:42.291Z,73.60
2019-02-20T05:54:10.070Z,73.91
2019-02-20T05:56:37.880Z,73.77
2019-02-20T05:59:05.837Z,73.78
2019-02-20T06:01:33.654Z,73.81
2019-02-20T06:04:01.494Z,73.77
2019-02-20T06:06:29.448Z,73.73
2019-02-20T06:08:57.422Z,73.43
2019-02-20T06:11:25.238Z,73.52
2019-02-20T06:13:53.007Z,73.53
2019-02-20T06:16:20.940Z,73.73
2019-02-20T06:18:48.699Z,73.60
2019-02-20T06:21:16.582Z,73.73
2019-02-20T06:23:44.409Z,73.23
2019-02-20T06:26:12.352Z,73.22
2019-02-20T06:28:40.198Z,73.74
2019-02-20T06:31:08.048Z,73.15
2019-02-20T06:33:36.427Z,73.34
2019-02-20T06:36:04.386Z,73.37
2019-02-20T06:38:32.182Z,73.85
2019-02-20T06:41:00.113Z,73.78
2019-02-20T06:43:27.940Z,73.74
2019-02-20T06:45:55.728Z,73.81
2019-02-20T06:48:23.494Z,74.04
2019-02-20T06:50:51.448Z,73.77
2019-02-20T06:55:53.984Z,73.64
2019-02-20T06:58:21.921Z,73.71
2019-02-20T07:00:49.730Z,73.97
2019-02-20T07:03:17.460Z,73.86
2019-02-20T07:06:09.466Z,73.73
2019-02-20T07:08:54.108Z,73.73
2019-02-20T07:12:02.570Z,73.48
2019-02-20T07:15:02.313Z,73.52
2019-02-20T07:18:02.404Z,73.39
2019-02-20T07:21:08.627Z,73.28
2019-02-20T07:24:03.019Z,73.45
2019-02-20T07:27:03.555Z,73.21
2019-02-20T07:29:59.801Z,72.88
2019-02-20T07:32:27.558Z,73.16
2019-02-20T07:34:55.501Z,73.29
2019-02-20T07:37:23.361Z,73.26
2019-02-20T07:39:51.313Z,73.42
2019-02-20T07:42:19.278Z,73.41
2019-02-20T07:44:47.073Z,72.82
2019-02-20T07:47:14.867Z,72.94
2019-02-20T07:49:42.623Z,72.78
2019-02-20T07:52:10.600Z,72.72
2019-02-20T07:54:38.350Z,73.10
2019-02-20T07:57:06.264Z,73.07
2019-02-20T07:59:34.000Z,72.54
2019-02-20T08:02:01.835Z,72.45
2019-02-20T08:04:29.584Z,72.56
2019-02-20T08:06:57.377Z,72.28
2019-02-20T08:09:25.369Z,72.53
2019-02-20T08:11:53.286Z,72.10
2019-02-20T08:14:21.115Z,72.25
2019-02-20T08:16:52.215Z,71.82
2019-02-20T08:19:18.613Z,71.74
2019-02-20T08:21:46.438Z,71.74
2019-02-20T08:24:14.173Z,72.08
2019-02-20T08:26:42.062Z,71.74
2019-02-20T08:29:10.252Z,71.14
2019-02-20T08:31:38.094Z,71.28
2019-02-20T08:34:05.962Z,71.18
2019-02-20T08:36:33.870Z,71.36
2019-02-20T08:39:01.625Z,71.36
2019-02-20T08:41:29.383Z,71.06
2019-02-20T08:43:57.277Z,70.71
2019-02-20T08:46:25.026Z,70.76
2019-02-20T08:48:52.834Z,70.55
2019-02-20T08:51:20.645Z,70.23
2019-02-20T08:53:48.450Z,70.01
2019-02-20T08:56:16.287Z,70.08
2019-02-20T08:58:44.176Z,70.00
2019-02-20T09:01:11.914Z,69.08
2019-02-20T09:03:39.838Z,69.26
2019-02-20T09:06:08.788Z,68.48
2019-02-20T09:08:36.616Z,68.31
2019-02-20T09:11:04.554Z,68.27
2019-02-20T09:13:32.928Z,70.41
2019-02-20T09:16:00.673Z,70.03
2019-02-20T09:18:28.494Z,70.66
2019-02-20T09:20:56.254Z,69.54
2019-02-20T09:23:24.041Z,64.66
2019-02-20T09:25:51.890Z,63.70
2019-02-20T09:28:19.708Z,64.74
2019-02-20T09:30:47.481Z,64.15
2019-02-20T09:33:15.391Z,65.38
2019-02-20T09:35:43.165Z,65.46
2019-02-20T09:38:10.966Z,65.42
2019-02-20T09:40:38.813Z,64.93
2019-02-20T09:43:06.767Z,65.13
2019-02-20T09:45:41.748Z,65.18
2019-02-20T09:48:04.482Z,65.98
2019-02-20T09:50:32.304Z,65.71
2019-02-20T09:53:00.133Z,65.57
2019-02-20T09:55:31.625Z,65.21
2019-02-20T09:57:59.654Z,64.96
2019-02-20T10:00:27.674Z,65.44
2019-02-20T10:02:55.545Z,65.30
2019-02-20T10:05:23.374Z,65.49
2019-02-20T10:07:51.173Z,64.87
2019-02-20T10:10:19.113Z,64.71
2019-02-20T10:12:46.886Z,64.78
2019-02-20T10:15:14.909Z,64.82
2019-02-20T10:17:42.787Z,64.24
2019-02-20T10:20:10.858Z,64.15
2019-02-20T10:22:38.749Z,64.56
2019-02-20T10:25:06.938Z,64.14
2019-02-20T10:27:35.174Z,64.01
2019-02-20T10:30:03.523Z,64.15
2019-02-20T10:32:31.491Z,64.28
2019-02-20T10:34:59.502Z,63.86
2019-02-20T10:37:27.278Z,63.38
2019-02-20T10:39:55.292Z,63.77
2019-02-20T10:42:23.476Z,63.64
2019-02-20T10:44:51.922Z,63.35
2019-02-20T10:47:19.710Z,63.83
2019-02-20T10:49:47.635Z,63.85
2019-02-20T10:52:15.672Z,64.00
2019-02-20T10:54:43.504Z,63.64
2019-02-20T10:57:11.425Z,63.19
2019-02-20T10:59:43.866Z,63.36
2019-02-20T11:02:12.116Z,63.26
2019-02-20T11:04:39.955Z,62.72
2019-02-20T11:07:07.858Z,62.80
2019-02-20T11:09:35.769Z,62.48
2019-02-20T11:12:03.544Z,61.98
2019-02-20T11:14:32.116Z,62.38
2019-02-20T11:16:59.949Z,62.63
2019-02-20T11:19:27.785Z,62.57
2019-02-20T11:21:55.635Z,62.34
2019-02-20T11:24:23.489Z,62.14
2019-02-20T11:26:55.054Z,61.89
2019-02-20T11:29:21.249Z,61.83
2019-02-20T11:31:49.863Z,61.66
2019-02-20T11:34:19.763Z,62.33
2019-02-20T11:36:49.326Z,62.33
2019-02-20T11:39:17.538Z,62.44
2019-02-20T11:41:46.750Z,62.05
2019-02-20T11:44:20.770Z,61.98
2019-02-20T11:46:44.722Z,62.08
2019-02-20T11:49:12.517Z,62.24
2019-02-20T11:51:40.498Z,61.87
2019-02-20T11:54:08.473Z,62.05
2019-02-20T11:56:36.344Z,61.62
2019-02-20T11:59:04.323Z,61.17
2019-02-20T12:01:32.324Z,60.91
2019-02-20T12:04:00.100Z,61.23
2019-02-20T12:06:27.957Z,61.48
2019-02-20T12:08:55.815Z,61.31
2019-02-20T12:11:23.625Z,60.91
2019-02-20T12:13:51.700Z,60.76
2019-02-20T12:16:19.508Z,60.67
2019-02-20T12:18:47.393Z,60.37
2019-02-20T12:21:15.384Z,60.51
2019-02-20T12:23:43.318Z,59.86
2019-02-20T12:26:11.370Z,60.17
2019-02-20T12:28:39.847Z,60.31
2019-02-20T12:31:07.790Z,59.89
2019-02-20T12:33:35.630Z,59.97
2019-02-20T12:36:03.731Z,59.41
2019-02-20T12:38:31.746Z,59.87
2019-02-20T12:41:00.113Z,59.24
2019-02-20T12:43:27.948Z,58.65
2019-02-20T12:45:55.821Z,59.17
2019-02-20T12:48:23.616Z,59.55
2019-02-20T12:50:52.173Z,58.84
2019-02-20T12:53:20.036Z,59.00
2019-02-20T12:55:47.907Z,58.34
2019-02-20T12:58:15.759Z,57.49
2019-02-20T13:00:43.831Z,57.96
2019-02-20T13:03:12.333Z,57.82
2019-02-20T13:05:40.137Z,57.01
2019-02-20T13:08:08.077Z,56.41
2019-02-20T13:10:36.932Z,56.94
2019-02-20T13:13:04.877Z,56.88
2019-02-20T13:15:32.870Z,56.79
2019-02-20T13:18:00.787Z,56.95
2019-02-20T13:20:28.547Z,56.16
2019-02-20T13:22:56.876Z,57.30
2019-02-20T13:25:24.625Z,56.59
2019-02-20T13:27:52.469Z,55.87
2019-02-20T13:30:20.244Z,56.03
2019-02-20T13:32:50.957Z,56.51
2019-02-20T13:35:18.849Z,56.85
2019-02-20T13:37:46.657Z,56.52
2019-02-20T13:40:14.635Z,56.39
2019-02-20T13:42:42.474Z,55.75
2019-02-20T13:45:10.417Z,55.98
2019-02-20T13:47:40.292Z,55.75
2019-02-20T13:50:08.298Z,56.44
2019-02-20T13:52:36.305Z,56.37
2019-02-20T13:55:06.218Z,56.51
2019-02-20T13:57:34.361Z,56.37
2019-02-20T14:00:02.403Z,56.58
2019-02-20T14:02:30.356Z,56.79
2019-02-20T14:04:58.150Z,56.98
2019-02-20T14:07:26.012Z,56.90
2019-02-20T14:09:53.923Z,56.87
2019-02-20T14:12:21.874Z,56.21
2019-02-20T14:14:49.669Z,56.82
2019-02-20T14:17:26.241Z,56.61
2019-02-20T14:19:47.379Z,56.66
2019-02-20T14:22:15.255Z,56.78
2019-02-20T14:24:43.114Z,56.96
2019-02-20T14:27:11.338Z,57.33
2019-02-20T14:29:39.408Z,57.42
2019-02-20T14:32:07.591Z,57.37
2019-02-20T14:34:35.518Z,57.70
2019-02-20T14:37:03.388Z,58.01
2019-02-20T14:39:31.230Z,57.90
2019-02-20T14:42:00.963Z,57.99
2019-02-20T14:44:28.846Z,58.00
2019-02-20T14:46:56.738Z,57.12
2019-02-20T14:49:24.737Z,57.79
2019-02-20T14:51:53.410Z,57.98
2019-02-20T14:54:21.514Z,57.99
2019-02-20T14:56:49.422Z,57.72
2019-02-20T14:59:17.377Z,58.05
2019-02-20T15:01:45.147Z,57.95
2019-02-20T15:04:13.295Z,58.01
2019-02-20T15:06:41.080Z,57.96
2019-02-20T15:09:09.053Z,58.08
2019-02-20T15:11:37.098Z,58.37
2019-02-20T15:14:05.034Z,57.79
2019-02-20T15:16:32.850Z,58.46
2019-02-20T15:19:00.615Z,58.58
2019-02-20T15:21:28.613Z,58.70
2019-02-20T15:23:56.487Z,58.73
2019-02-20T15:26:24.424Z,58.98
2019-02-20T15:28:52.170Z,59.10
2019-02-20T15:31:21.348Z,59.04
2019-02-20T15:33:49.224Z,59.37
2019-02-20T15:36:17.152Z,59.31
2019-02-20T15:38:46.108Z,59.04
2019-02-20T15:41:14.018Z,59.32
2019-02-20T15:43:53.156Z,59.56
2019-02-20T15:46:21.123Z,59.85
2019-02-20T15:48:48.889Z,60.06
2019-02-20T15:51:16.694Z,60.06
2019-02-20T15:53:44.956Z,60.05
2019-02-20T15:56:12.947Z,59.92
2019-02-20T15:58:40.974Z,60.08
2019-02-20T16:01:09.455Z,60.15
2019-02-20T16:03:38.022Z,60.02
2019-02-20T16:06:05.958Z,60.27
2019-02-20T16:08:33.943Z,60.40
2019-02-20T16:11:02.264Z,60.35
2019-02-20T16:13:30.059Z,60.58
2019-02-20T16:15:57.992Z,60.60
2019-02-20T16:18:25.940Z,60.79
2019-02-20T16:20:53.967Z,60.72
2019-02-20T16:23:21.842Z,60.80
2019-02-20T16:25:49.601Z,60.87
2019-02-20T16:28:17.814Z,60.99
2019-02-20T16:30:45.684Z,61.02
2019-02-20T16:33:13.506Z,60.90
2019-02-20T16:35:41.371Z,61.16
2019-02-20T16:38:09.310Z,61.26
2019-02-20T16:40:37.081Z,61.08
2019-02-20T16:43:05.128Z,61.16
2019-02-20T16:45:33.385Z,61.36
2019-02-20T16:48:01.312Z,61.46
2019-02-20T16:50:29.090Z,61.66
2019-02-20T16:52:56.893Z,61.69
2019-02-20T16:55:24.694Z,61.76
2019-02-20T16:57:56.554Z,61.80
2019-02-20T17:00:23.399Z,61.96
2019-02-20T17:02:51.709Z,62.04
2019-02-20T17:05:19.658Z,61.93
2019-02-20T17:07:47.690Z,62.03
2019-02-20T17:10:15.859Z,62.25
2019-02-20T17:12:43.892Z,62.21
2019-02-20T17:15:12.209Z,62.20
2019-02-20T17:17:40.226Z,62.30
2019-02-20T17:20:10.393Z,62.50
2019-02-20T17:22:38.470Z,62.52
2019-02-20T17:25:07.483Z,62.59
2019-02-20T17:27:35.477Z,62.64
2019-02-20T17:30:03.788Z,62.80
2019-02-20T17:32:33.042Z,62.68
2019-02-20T17:35:01.472Z,62.70
2019-02-20T17:37:29.388Z,62.92
2019-02-20T17:39:57.145Z,63.05
2019-02-20T17:42:24.971Z,63.11
2019-02-20T17:44:52.839Z,63.24
2019-02-20T17:47:20.738Z,63.28
2019-02-20T17:49:48.577Z,65.43
2019-02-20T17:52:16.831Z,65.46
2019-02-20T17:54:44.649Z,64.08
2019-02-20T17:57:12.676Z,63.12
2019-02-20T17:59:41.263Z,62.90
2019-02-20T18:02:09.524Z,63.06
2019-02-20T18:04:37.351Z,63.52
2019-02-20T18:07:05.293Z,63.51
2019-02-20T18:09:33.203Z,63.65
2019-02-20T18:12:01.586Z,63.93
2019-02-20T18:14:29.515Z,64.15
2019-02-20T18:16:58.094Z,64.46
2019-02-20T18:19:29.514Z,64.50
2019-02-20T18:21:57.463Z,64.67
2019-02-20T18:24:26.133Z,64.82
2019-02-20T18:26:53.944Z,64.84
2019-02-20T18:29:21.790Z,64.89
2019-02-20T18:31:49.675Z,65.02
2019-02-20T18:34:17.527Z,65.81
2019-02-20T18:36:45.391Z,67.97
2019-02-20T18:39:13.395Z,65.67
2019-02-20T18:41:41.250Z,64.34
2019-02-20T18:44:09.368Z,64.20
2019-02-20T18:46:37.140Z,66.10
2019-02-20T18:49:05.072Z,66.96
2019-02-20T18:51:32.820Z,65.53
2019-02-20T18:54:00.621Z,63.61
2019-02-20T18:56:28.418Z,62.96
2019-02-20T18:58:56.426Z,63.30
2019-02-20T19:01:24.268Z,63.27
2019-02-20T19:03:52.872Z,63.60
2019-02-20T19:06:20.756Z,63.97
2019-02-20T19:09:02.374Z,64.23
2019-02-20T19:11:53.360Z,64.22
2019-02-20T19:14:40.661Z,64.47
2019-02-20T19:17:51.033Z,64.60
2019-02-20T19:20:35.533Z,64.80
2019-02-20T19:23:36.804Z,64.91
2019-02-20T19:26:36.952Z,65.12
2019-02-20T19:29:43.398Z,65.20
2019-02-20T19:33:14.136Z,65.20
2019-02-20T19:36:11.692Z,65.18
2019-02-20T19:39:27.070Z,68.62
2019-02-20T19:42:46.691Z,65.48
2019-02-20T19:45:44.134Z,63.35
2019-02-20T19:48:49.432Z,63.47
2019-02-20T19:52:11.478Z,63.96
2019-02-20T19:54:57.767Z,64.30
2019-02-20T19:57:57.208Z,64.55
2019-02-20T20:01:02.023Z,64.75
2019-02-20T20:03:52.996Z,65.09
2019-02-20T20:06:49.685Z,65.15
2019-02-20T20:09:28.329Z,65.31
2019-02-20T20:12:33.465Z,65.41
2019-02-20T20:15:41.890Z,65.54
2019-02-20T20:18:50.203Z,65.64
2019-02-20T20:21:57.180Z,65.74
2019-02-20T20:24:56.885Z,65.78
2019-02-20T20:27:52.603Z,65.87
2019-02-20T20:30:43.635Z,65.87
2019-02-20T20:34:01.885Z,65.78
2019-02-20T20:37:16.151Z,65.87
2019-02-20T20:40:28.272Z,65.95
2019-02-20T20:43:40.106Z,65.97
2019-02-20T20:46:41.397Z,66.12
2019-02-20T20:49:37.591Z,66.29
2019-02-20T20:52:32.878Z,66.28
2019-02-20T20:55:33.882Z,66.19
2019-02-20T20:58:35.226Z,66.07
2019-02-20T21:01:36.564Z,66.10
2019-02-20T21:04:56.950Z,66.17
2019-02-20T21:07:52.729Z,66.33
2019-02-20T21:10:57.938Z,66.35
2019-02-20T21:13:39.453Z,66.42
2019-02-20T21:17:00.511Z,66.51
2019-02-20T21:20:05.619Z,66.59
2019-02-20T21:23:11.489Z,66.58
2019-02-20T21:26:33.873Z,66.57
2019-02-20T21:29:40.048Z,66.70
2019-02-20T21:33:00.111Z,66.64
2019-02-20T21:36:06.851Z,66.57
2019-02-20T21:38:59.333Z,66.59
2019-02-20T21:42:05.300Z,66.66
2019-02-20T21:44:54.957Z,66.73
2019-02-20T21:47:58.860Z,66.70
2019-02-20T21:50:49.298Z,66.71
2019-02-20T21:54:10.678Z,66.63
2019-02-20T21:57:12.550Z,66.82
2019-02-20T22:00:03.674Z,66.81
2019-02-20T22:02:54.838Z,66.90
2019-02-20T22:06:01.888Z,66.97
2019-02-20T22:09:13.277Z,66.95
2019-02-20T22:12:37.520Z,67.11
2019-02-20T22:15:55.279Z,67.09
2019-02-20T22:19:05.249Z,67.11
2019-02-20T22:22:00.278Z,67.32
2019-02-20T22:25:12.435Z,67.14
2019-02-20T22:28:03.939Z,67.22
2019-02-20T22:31:06.974Z,67.34
2019-02-20T22:33:55.696Z,67.30
2019-02-20T22:37:00.740Z,67.25
2019-02-20T22:39:53.739Z,67.35
2019-02-20T22:43:14.333Z,67.37
2019-02-20T22:45:56.684Z,67.71
2019-02-20T22:49:14.015Z,67.29
2019-02-20T22:52:11.369Z,67.34
2019-02-20T22:55:15.622Z,67.19
2019-02-20T22:57:50.614Z,67.35
2019-02-20T23:01:03.248Z,67.16
2019-02-20T23:03:59.171Z,67.23
2019-02-20T23:06:48.148Z,67.28
2019-02-20T23:09:43.491Z,67.35
2019-02-20T23:13:00.108Z,67.41
2019-02-20T23:15:28.060Z,67.34
2019-02-20T23:17:55.980Z,67.19
2019-02-20T23:20:23.748Z,67.13
2019-02-20T23:22:51.661Z,67.17
2019-02-20T23:25:19.543Z,67.55
2019-02-20T23:27:47.290Z,67.25
2019-02-20T23:30:18.556Z,67.23
2019-02-20T23:32:46.571Z,67.12
2019-02-20T23:35:14.516Z,67.16
2019-02-20T23:37:42.263Z,67.06
2019-02-20T23:40:10.305Z,67.02
2019-02-20T23:42:38.084Z,67.03
2019-02-20T23:45:06.091Z,67.04
2019-02-20T23:47:34.492Z,67.03
2019-02-20T23:50:02.348Z,67.03
2019-02-20T23:52:30.165Z,67.00
2019-02-20T23:54:57.947Z,66.96
2019-02-20T23:57:25.857Z,67.07
2019-02-20T23:59:53.944Z,67.06
